Time;durP1;ratioP1;P1;durP2;ratioP2;P2;SDS_P1;SDS_P2;PMS_P1;PMS_P2;Temp;Humidity;BMP_temperature;BMP_pressure;BME280_temperature;BME280_humidity;BME280_pressure;Samples;Min_cycle;Max_cycle;Signal;HPM_P1;HPM_P2
2021/03/23 00:01:12;;;;;;;15.18;7.40;;;5.60;67.10;;;;;;4975988;28;20039;-64
2021/03/23 00:03:40;;;;;;;13.18;6.95;;;5.60;67.10;;;;;;4977516;28;20039;-64
2021/03/23 00:06:08;;;;;;;11.45;7.05;;;5.60;67.00;;;;;;4973876;28;20130;-63
2021/03/23 00:08:38;;;;;;;13.07;6.93;;;5.60;67.90;;;;;;4974074;28;20062;-64
2021/03/23 00:11:20;;;;;;;13.35;7.10;;;5.60;67.00;;;;;;4969700;28;20058;-65
2021/03/23 00:13:46;;;;;;;16.08;7.43;;;5.60;67.50;;;;;;4974331;28;20513;-64
2021/03/23 00:16:15;;;;;;;13.10;6.80;;;5.50;67.00;;;;;;4976827;28;20046;-63
2021/03/23 00:18:45;;;;;;;15.75;7.22;;;5.50;67.00;;;;;;4971130;28;20051;-64
2021/03/23 00:21:11;;;;;;;13.85;7.28;;;5.50;67.20;;;;;;4976769;28;20035;-63
2021/03/23 00:23:37;;;;;;;15.90;7.57;;;5.50;67.20;;;;;;4977101;28;20049;-64
2021/03/23 00:26:05;;;;;;;11.77;7.10;;;5.50;67.30;;;;;;4971866;28;20085;-63
2021/03/23 00:28:30;;;;;;;14.55;7.30;;;5.50;67.20;;;;;;4971666;28;20042;-64
2021/03/23 00:30:56;;;;;;;13.48;7.13;;;5.50;67.20;;;;;;4972970;28;20037;-63
2021/03/23 00:33:23;;;;;;;12.77;6.95;;;5.50;67.30;;;;;;4973852;28;20129;-64
2021/03/23 00:35:52;;;;;;;14.02;7.78;;;5.50;67.30;;;;;;4976900;28;20391;-64
2021/03/23 00:38:23;;;;;;;13.05;7.35;;;5.50;67.30;;;;;;4977611;28;20057;-65
2021/03/23 00:40:51;;;;;;;15.98;8.20;;;5.50;67.40;;;;;;4977035;28;20434;-64
2021/03/23 00:43:19;;;;;;;11.95;6.97;;;5.50;67.40;;;;;;4978761;28;20035;-63
2021/03/23 00:45:45;;;;;;;12.68;7.53;;;5.50;67.50;;;;;;4975307;28;20117;-64
2021/03/23 00:48:14;;;;;;;14.05;8.25;;;5.50;67.60;;;;;;4973648;28;20129;-65
2021/03/23 00:50:41;;;;;;;15.65;8.38;;;5.50;67.70;;;;;;4975220;28;20398;-64
2021/03/23 00:53:09;;;;;;;17.20;7.78;;;5.50;67.60;;;;;;4975182;28;20030;-65
2021/03/23 00:55:35;;;;;;;14.10;7.28;;;5.50;67.70;;;;;;4973707;28;20046;-64
2021/03/23 00:58:03;;;;;;;17.23;8.20;;;5.50;67.50;;;;;;4975528;28;20402;-64
2021/03/23 01:00:29;;;;;;;17.00;7.53;;;5.50;67.70;;;;;;4973404;28;20046;-63
2021/03/23 01:02:56;;;;;;;13.60;7.65;;;5.40;68.50;;;;;;4973727;28;20038;-64
2021/03/23 01:05:26;;;;;;;11.35;7.57;;;5.40;67.90;;;;;;4969680;28;20035;-64
2021/03/23 01:07:52;;;;;;;14.55;7.88;;;5.50;67.90;;;;;;4974859;28;20726;-64
2021/03/23 01:10:20;;;;;;;11.57;7.35;;;5.40;67.90;;;;;;4971705;28;20053;-64
2021/03/23 01:12:46;;;;;;;13.18;7.85;;;5.40;67.90;;;;;;4972510;28;20125;-63
2021/03/23 01:15:16;;;;;;;16.27;7.70;;;5.50;67.90;;;;;;4976224;28;20469;-64
2021/03/23 01:17:42;;;;;;;12.85;7.70;;;5.40;67.90;;;;;;4964970;28;20070;-63
2021/03/23 01:20:11;;;;;;;13.65;7.80;;;5.40;67.80;;;;;;4976825;28;20489;-64
2021/03/23 01:22:39;;;;;;;12.52;7.35;;;5.40;67.80;;;;;;4972853;28;20065;-64
2021/03/23 01:25:07;;;;;;;12.70;8.02;;;5.40;67.70;;;;;;4971709;28;20039;-65
2021/03/23 01:27:35;;;;;;;13.50;7.07;;;5.40;67.80;;;;;;4973450;28;20035;-65
2021/03/23 01:30:03;;;;;;;12.43;7.25;;;5.50;67.90;;;;;;4969811;28;20057;-65
2021/03/23 01:32:29;;;;;;;15.75;7.07;;;5.50;67.80;;;;;;4972985;28;20129;-64
2021/03/23 01:34:54;;;;;;;13.82;7.43;;;5.50;67.80;;;;;;4977118;28;20069;-64
2021/03/23 01:37:22;;;;;;;13.32;7.13;;;5.50;67.80;;;;;;4975677;28;20076;-64
2021/03/23 01:39:48;;;;;;;15.20;7.82;;;5.50;67.70;;;;;;4982398;28;20038;-64
2021/03/23 01:42:17;;;;;;;12.27;8.07;;;5.50;67.70;;;;;;4976198;28;20045;-64
2021/03/23 01:44:49;;;;;;;13.52;7.70;;;5.50;67.90;;;;;;4966975;28;20391;-64
2021/03/23 01:47:19;;;;;;;12.57;7.47;;;5.40;67.80;;;;;;4963334;28;20043;-63
2021/03/23 01:49:48;;;;;;;12.52;7.32;;;5.50;67.90;;;;;;4964699;28;20031;-64
2021/03/23 01:52:18;;;;;;;15.27;7.95;;;5.40;67.90;;;;;;4965002;28;20050;-64
2021/03/23 01:55:06;;;;;;;13.75;7.90;;;5.50;68.00;;;;;;4961512;28;20039;-64
2021/03/23 01:57:35;;;;;;;16.25;7.78;;;5.40;67.90;;;;;;4965396;28;20041;-64
2021/03/23 02:00:07;;;;;;;13.93;7.90;;;5.40;67.90;;;;;;4957386;28;20070;-64
2021/03/23 02:02:36;;;;;;;15.43;7.57;;;5.40;67.90;;;;;;4961959;28;20039;-64
2021/03/23 02:05:03;;;;;;;10.80;7.32;;;5.40;68.10;;;;;;4965680;28;20037;-64
2021/03/23 02:07:29;;;;;;;13.13;7.43;;;5.40;68.00;;;;;;4962453;28;20051;-65
2021/03/23 02:09:58;;;;;;;14.52;7.35;;;5.40;68.00;;;;;;4964009;28;20035;-65
2021/03/23 02:12:27;;;;;;;15.38;7.70;;;5.40;68.10;;;;;;4958118;28;20035;-64
2021/03/23 02:14:54;;;;;;;15.30;7.45;;;5.40;68.10;;;;;;4963706;28;20107;-64
2021/03/23 02:17:28;;;;;;;12.35;7.20;;;5.30;68.00;;;;;;4964584;28;20424;-65
2021/03/23 02:20:01;;;;;;;16.23;8.30;;;5.30;68.20;;;;;;4962818;28;20125;-65
2021/03/23 02:22:33;;;;;;;14.05;8.35;;;5.30;68.20;;;;;;4963605;28;20072;-64
2021/03/23 02:25:02;;;;;;;11.50;8.23;;;5.30;69.10;;;;;;4963969;28;20094;-65
2021/03/23 02:27:33;;;;;;;15.35;8.50;;;5.20;68.20;;;;;;4964905;28;20039;-65
2021/03/23 02:30:04;;;;;;;19.85;9.23;;;5.20;68.40;;;;;;4963224;28;20038;-65
2021/03/23 02:32:32;;;;;;;14.93;8.48;;;5.20;68.50;;;;;;4962858;28;20087;-65
2021/03/23 02:34:59;;;;;;;16.02;8.75;;;5.20;68.60;;;;;;4973441;28;20035;-64
2021/03/23 02:37:27;;;;;;;15.25;8.88;;;5.20;68.60;;;;;;4963931;28;20533;-64
2021/03/23 02:39:53;;;;;;;17.63;8.93;;;5.20;68.70;;;;;;4960218;28;20042;-65
2021/03/23 02:42:19;;;;;;;18.45;8.40;;;5.20;68.70;;;;;;4965264;28;20073;-65
2021/03/23 02:44:47;;;;;;;14.32;7.88;;;5.10;68.70;;;;;;4964111;28;20078;-65
2021/03/23 02:47:19;;;;;;;13.82;8.05;;;5.10;68.80;;;;;;4963507;28;20417;-65
2021/03/23 02:49:48;;;;;;;14.07;8.80;;;5.00;68.80;;;;;;4960732;28;20790;-64
2021/03/23 02:52:14;;;;;;;14.75;8.60;;;5.10;68.90;;;;;;4962331;28;20042;-64
2021/03/23 02:54:42;;;;;;;18.40;9.15;;;5.10;68.90;;;;;;4962019;28;23040;-64
2021/03/23 02:57:08;;;;;;;15.65;8.15;;;5.00;69.10;;;;;;4962504;28;20054;-65
2021/03/23 02:59:35;;;;;;;14.65;8.40;;;5.00;69.10;;;;;;4962347;28;20047;-64
2021/03/23 03:02:03;;;;;;;17.67;8.50;;;5.00;69.10;;;;;;4964779;28;20027;-65
2021/03/23 03:04:31;;;;;;;13.18;8.27;;;5.00;69.20;;;;;;4961430;28;20101;-63
2021/03/23 03:06:57;;;;;;;16.27;7.75;;;5.00;69.20;;;;;;4976086;28;20043;-65
2021/03/23 03:09:23;;;;;;;16.27;8.23;;;5.00;69.20;;;;;;4961931;28;20482;-65
2021/03/23 03:11:50;;;;;;;14.07;7.93;;;5.00;69.30;;;;;;4959074;28;20035;-65
2021/03/23 03:14:18;;;;;;;18.15;8.23;;;5.00;69.40;;;;;;4965005;28;20438;-65
2021/03/23 03:16:44;;;;;;;12.38;7.75;;;5.00;69.40;;;;;;4961235;28;20522;-65
2021/03/23 03:19:09;;;;;;;14.05;8.20;;;5.00;69.40;;;;;;4962058;28;20134;-65
2021/03/23 03:21:37;;;;;;;12.82;8.05;;;5.00;69.60;;;;;;4962137;28;20041;-64
2021/03/23 03:24:09;;;;;;;14.45;8.10;;;5.00;69.50;;;;;;4962538;28;20039;-64
2021/03/23 03:26:35;;;;;;;14.82;8.30;;;5.00;69.40;;;;;;4961421;28;20035;-65
2021/03/23 03:29:01;;;;;;;15.23;8.93;;;5.00;69.40;;;;;;4966890;28;20088;-65
2021/03/23 03:31:28;;;;;;;14.30;8.45;;;5.00;69.60;;;;;;4976383;28;20035;-64
2021/03/23 03:33:56;;;;;;;13.50;8.45;;;5.00;69.50;;;;;;4973264;28;20035;-64
2021/03/23 03:36:24;;;;;;;14.38;8.45;;;5.00;69.40;;;;;;4973239;28;20133;-65
2021/03/23 03:38:51;;;;;;;15.27;8.48;;;5.00;69.50;;;;;;4987654;28;20035;-64
2021/03/23 03:41:17;;;;;;;13.50;8.85;;;5.00;69.50;;;;;;4977878;28;20030;-64
2021/03/23 03:43:45;;;;;;;14.68;8.50;;;5.00;69.60;;;;;;4977583;28;20647;-65
2021/03/23 03:46:13;;;;;;;15.95;8.43;;;5.00;69.50;;;;;;4978279;28;20031;-64
2021/03/23 03:48:39;;;;;;;16.65;8.82;;;5.10;69.40;;;;;;4967068;28;20141;-63
2021/03/23 03:51:08;;;;;;;15.23;8.38;;;5.10;69.50;;;;;;4987906;28;20129;-64
2021/03/23 03:53:36;;;;;;;16.45;8.85;;;5.10;69.50;;;;;;4976090;28;20506;-64
2021/03/23 03:56:05;;;;;;;16.77;8.57;;;5.10;69.40;;;;;;4974616;28;20035;-65
2021/03/23 03:58:30;;;;;;;14.45;9.35;;;5.10;69.40;;;;;;4976421;28;20046;-64
2021/03/23 04:00:56;;;;;;;14.85;8.52;;;5.10;69.40;;;;;;4977134;28;20038;-64
2021/03/23 04:03:29;;;;;;;14.63;8.40;;;5.10;69.30;;;;;;4978115;28;20577;-63
2021/03/23 04:05:56;;;;;;;14.13;8.77;;;5.10;69.60;;;;;;4970390;28;20786;-64
2021/03/23 04:08:25;;;;;;;12.32;8.05;;;5.10;69.50;;;;;;4973501;28;20506;-65
2021/03/23 04:10:52;;;;;;;15.68;8.77;;;5.10;69.40;;;;;;4971036;28;20069;-64
2021/03/23 04:13:22;;;;;;;17.70;8.57;;;5.10;69.40;;;;;;4976535;28;20034;-64
2021/03/23 04:15:54;;;;;;;14.70;8.45;;;5.10;69.40;;;;;;4974145;28;20038;-65
2021/03/23 04:18:25;;;;;;;15.35;8.82;;;5.10;69.40;;;;;;4970467;28;20030;-65
2021/03/23 04:20:53;;;;;;;18.13;9.88;;;5.10;69.30;;;;;;4972085;28;20038;-64
2021/03/23 04:23:21;;;;;;;18.75;9.35;;;5.10;69.30;;;;;;4974025;28;20486;-63
2021/03/23 04:25:51;;;;;;;18.10;8.98;;;5.10;69.30;;;;;;4975114;28;20053;-64
2021/03/23 04:28:17;;;;;;;18.95;9.43;;;5.00;69.30;;;;;;4978879;28;20038;-64
2021/03/23 04:30:43;;;;;;;15.38;9.20;;;5.00;69.30;;;;;;4968535;28;20104;-64
2021/03/23 04:33:09;;;;;;;16.55;8.48;;;5.00;69.30;;;;;;4972271;28;20516;-64
2021/03/23 04:35:56;;;;;;;18.08;9.20;;;5.00;69.30;;;;;;4976521;28;20035;-64
2021/03/23 04:38:31;;;;;;;14.95;8.23;;;5.00;69.80;;;;;;4965377;28;20038;-65
2021/03/23 04:40:58;;;;;;;16.15;8.85;;;5.00;69.50;;;;;;4967037;28;20041;-64
2021/03/23 04:43:27;;;;;;;18.65;8.90;;;5.00;69.40;;;;;;4968225;28;20559;-64
2021/03/23 04:45:53;;;;;;;16.08;8.75;;;5.00;69.50;;;;;;4967581;28;20677;-65
2021/03/23 04:48:20;;;;;;;18.15;8.98;;;5.00;69.50;;;;;;4964501;28;20030;-63
2021/03/23 04:50:46;;;;;;;17.40;9.15;;;5.00;69.50;;;;;;4967896;28;20061;-64
2021/03/23 04:53:24;;;;;;;18.27;8.65;;;5.00;69.40;;;;;;4972908;28;20517;-63
2021/03/23 04:55:50;;;;;;;15.82;9.25;;;5.00;69.80;;;;;;4968885;28;20047;-63
2021/03/23 04:58:18;;;;;;;18.50;9.13;;;5.00;69.40;;;;;;4966837;28;20031;-63
2021/03/23 05:00:46;;;;;;;19.17;8.50;;;5.00;69.50;;;;;;4962638;28;22351;-63
2021/03/23 05:03:23;;;;;;;15.88;8.63;;;4.90;69.60;;;;;;4967784;28;20035;-64
2021/03/23 05:06:04;;;;;;;15.88;8.43;;;4.90;69.80;;;;;;4977545;28;20515;-64
2021/03/23 05:08:30;;;;;;;16.00;8.73;;;4.90;69.80;;;;;;4974856;28;20727;-64
2021/03/23 05:11:00;;;;;;;14.27;8.32;;;4.90;69.60;;;;;;4974973;28;20066;-63
2021/03/23 05:13:28;;;;;;;15.07;8.70;;;4.90;69.70;;;;;;4975367;28;20553;-64
2021/03/23 05:15:56;;;;;;;15.93;9.00;;;4.90;69.70;;;;;;4973250;28;20035;-64
2021/03/23 05:18:22;;;;;;;19.17;9.55;;;4.90;69.80;;;;;;4971250;28;20580;-64
2021/03/23 05:20:48;;;;;;;19.23;10.48;;;4.90;69.80;;;;;;4975817;28;20517;-64
2021/03/23 05:23:14;;;;;;;19.10;10.57;;;4.90;69.80;;;;;;4975153;28;20113;-64
2021/03/23 05:25:45;;;;;;;19.85;10.13;;;4.90;69.90;;;;;;4967232;28;20023;-64
2021/03/23 05:28:11;;;;;;;19.52;10.02;;;4.90;70.00;;;;;;4973587;28;20027;-64
2021/03/23 05:30:40;;;;;;;19.92;10.05;;;4.90;69.90;;;;;;4978050;28;20062;-63
2021/03/23 05:33:11;;;;;;;15.90;9.73;;;4.90;70.00;;;;;;4976948;28;20037;-64
2021/03/23 05:35:37;;;;;;;18.60;10.50;;;4.90;70.20;;;;;;4978839;28;20122;-65
2021/03/23 05:38:06;;;;;;;22.08;11.82;;;4.90;70.10;;;;;;4974370;28;20090;-65
2021/03/23 05:40:39;;;;;;;18.17;11.32;;;4.90;70.10;;;;;;4977890;28;20038;-64
2021/03/23 05:43:29;;;;;;;19.23;11.15;;;4.90;70.20;;;;;;4976571;28;20063;-64
2021/03/23 05:46:12;;;;;;;22.17;12.73;;;4.90;70.60;;;;;;4975565;28;20414;-63
2021/03/23 05:48:56;;;;;;;19.60;10.77;;;4.90;70.30;;;;;;4976634;28;20041;-64
2021/03/23 05:51:30;;;;;;;18.63;11.40;;;4.90;70.60;;;;;;4961634;28;20097;-65
2021/03/23 05:53:59;;;;;;;22.92;10.95;;;4.90;70.30;;;;;;4977907;28;20039;-64
2021/03/23 05:56:28;;;;;;;22.52;11.35;;;5.00;70.40;;;;;;4976702;28;20108;-64
2021/03/23 05:59:02;;;;;;;26.30;12.85;;;5.00;70.50;;;;;;4975893;28;20040;-65
2021/03/23 06:01:34;;;;;;;22.17;10.97;;;5.00;70.50;;;;;;4978166;28;20058;-65
2021/03/23 06:04:08;;;;;;;24.63;12.63;;;5.00;70.40;;;;;;4974872;28;20278;-65
2021/03/23 06:06:44;;;;;;;27.75;14.88;;;5.00;70.50;;;;;;4971652;28;20045;-64
2021/03/23 06:09:12;;;;;;;29.38;13.95;;;5.00;70.50;;;;;;4977434;28;20585;-63
2021/03/23 06:11:46;;;;;;;22.65;12.55;;;5.00;70.40;;;;;;4970323;28;20085;-64
2021/03/23 06:14:34;;;;;;;20.20;10.45;;;5.00;70.50;;;;;;4977110;28;20031;-64
2021/03/23 06:17:28;;;;;;;23.02;12.40;;;5.10;70.80;;;;;;4975888;28;20042;-63
2021/03/23 06:20:09;;;;;;;21.20;10.93;;;5.10;70.60;;;;;;4968700;28;20291;-65
2021/03/23 06:22:49;;;;;;;21.30;10.32;;;5.10;70.40;;;;;;4974638;28;20035;-64
2021/03/23 06:25:25;;;;;;;22.02;11.63;;;5.10;70.50;;;;;;4980577;28;20034;-65
2021/03/23 06:27:58;;;;;;;21.73;11.15;;;5.20;70.60;;;;;;4980111;28;20101;-65
2021/03/23 06:30:49;;;;;;;27.92;11.27;;;5.10;70.30;;;;;;4978816;28;20070;-63
2021/03/23 06:33:18;;;;;;;27.92;10.30;;;5.20;70.80;;;;;;4980694;28;20110;-65
2021/03/23 06:35:46;;;;;;;20.92;9.65;;;5.20;70.50;;;;;;4979883;28;20079;-65
2021/03/23 06:38:40;;;;;;;19.17;10.07;;;5.20;70.60;;;;;;4977316;28;20039;-64
2021/03/23 06:41:30;;;;;;;22.00;9.35;;;5.20;71.20;;;;;;4979824;28;20031;-64
2021/03/23 06:44:19;;;;;;;17.65;9.35;;;5.20;70.80;;;;;;4981110;28;20045;-64
2021/03/23 06:46:52;;;;;;;17.25;8.95;;;5.20;70.70;;;;;;4980375;28;20085;-64
2021/03/23 06:49:25;;;;;;;16.40;9.38;;;5.20;70.60;;;;;;4975684;28;20118;-63
2021/03/23 06:51:59;;;;;;;19.27;9.60;;;5.20;70.60;;;;;;4994654;28;20043;-64
2021/03/23 06:54:41;;;;;;;25.90;9.98;;;5.20;70.60;;;;;;4977938;28;20122;-64
2021/03/23 06:57:18;;;;;;;24.00;10.43;;;5.20;70.60;;;;;;4981087;28;20035;-63
2021/03/23 07:00:05;;;;;;;21.00;10.00;;;5.20;71.20;;;;;;4980753;28;20397;-65
2021/03/23 07:02:46;;;;;;;17.70;9.98;;;5.20;71.40;;;;;;4978437;28;20026;-64
2021/03/23 07:05:20;;;;;;;21.42;9.82;;;5.20;71.20;;;;;;4978491;28;20031;-64
2021/03/23 07:08:12;;;;;;;20.65;10.98;;;5.30;71.30;;;;;;4979868;28;20046;-64
2021/03/23 07:10:43;;;;;;;29.02;14.68;;;5.30;71.30;;;;;;4974097;28;20031;-64
2021/03/23 07:13:30;;;;;;;24.55;12.63;;;5.30;71.20;;;;;;4976840;28;20035;-64
2021/03/23 07:16:10;;;;;;;24.50;11.98;;;5.30;71.80;;;;;;4980771;28;20379;-65
2021/03/23 07:18:41;;;;;;;21.13;12.20;;;5.40;72.00;;;;;;4979748;28;20033;-64
2021/03/23 07:21:29;;;;;;;32.00;14.35;;;5.40;71.40;;;;;;4979464;28;20038;-65
2021/03/23 07:24:11;;;;;;;26.65;15.05;;;5.40;71.90;;;;;;4972626;28;20026;-65
2021/03/23 07:26:40;;;;;;;26.20;14.02;;;5.50;71.70;;;;;;4976901;28;20031;-64
2021/03/23 07:29:15;;;;;;;26.15;12.98;;;5.50;71.50;;;;;;4976213;28;20027;-64
2021/03/23 07:32:10;;;;;;;20.85;12.95;;;5.50;71.50;;;;;;4974255;28;20031;-65
2021/03/23 07:34:42;;;;;;;32.65;17.90;;;5.60;71.80;;;;;;4979244;28;20425;-64
2021/03/23 07:37:22;;;;;;;30.20;13.88;;;5.70;71.40;;;;;;4980140;28;20030;-65
2021/03/23 07:40:33;;;;;;;24.85;12.82;;;5.70;71.50;;;;;;4979706;28;20035;-64
2021/03/23 07:43:17;;;;;;;24.33;12.45;;;5.80;71.70;;;;;;4979201;28;20034;-65
2021/03/23 07:46:03;;;;;;;27.08;13.85;;;5.90;71.40;;;;;;4976704;28;20077;-63
2021/03/23 07:48:40;;;;;;;25.83;13.13;;;5.90;71.20;;;;;;4978453;28;20038;-63
2021/03/23 07:51:27;;;;;;;26.55;14.43;;;6.00;71.00;;;;;;4975595;28;20125;-64
2021/03/23 07:54:00;;;;;;;26.88;13.98;;;6.00;71.00;;;;;;4979241;28;20061;-65
2021/03/23 07:56:56;;;;;;;22.60;12.68;;;6.10;70.80;;;;;;4978151;28;20038;-64
2021/03/23 07:59:25;;;;;;;23.77;13.10;;;6.10;70.90;;;;;;4979012;28;20034;-65
2021/03/23 08:02:23;;;;;;;26.00;13.10;;;6.20;70.70;;;;;;4963228;28;20571;-65
2021/03/23 08:05:02;;;;;;;27.63;14.13;;;6.20;70.50;;;;;;4974142;28;20408;-64
2021/03/23 08:07:45;;;;;;;28.23;13.93;;;6.20;70.40;;;;;;4976742;28;20120;-65
2021/03/23 08:10:19;;;;;;;28.63;13.98;;;6.30;70.30;;;;;;4978397;28;20122;-65
2021/03/23 08:12:54;;;;;;;25.08;13.75;;;6.30;70.20;;;;;;4976186;28;20035;-64
2021/03/23 08:15:48;;;;;;;25.65;13.65;;;6.30;70.10;;;;;;4975657;28;20477;-64
2021/03/23 08:18:48;;;;;;;25.35;12.65;;;6.40;70.20;;;;;;4972805;28;20049;-65
2021/03/23 08:21:49;;;;;;;25.88;13.40;;;6.50;70.10;;;;;;4977692;28;20430;-64
2021/03/23 08:24:37;;;;;;;23.58;13.10;;;6.60;70.00;;;;;;4968574;28;20034;-65
2021/03/23 08:27:21;;;;;;;28.35;13.75;;;6.60;69.80;;;;;;4976117;28;20030;-65
2021/03/23 08:29:56;;;;;;;25.40;13.05;;;6.70;69.60;;;;;;4978232;28;20042;-64
2021/03/23 08:32:38;;;;;;;25.10;13.82;;;6.70;69.40;;;;;;4975128;28;20513;-64
2021/03/23 08:35:24;;;;;;;24.25;13.50;;;6.80;69.30;;;;;;4977247;28;20081;-64
2021/03/23 08:38:12;;;;;;;24.15;13.30;;;6.80;69.50;;;;;;4977739;28;20110;-64
2021/03/23 08:40:48;;;;;;;27.27;14.18;;;6.90;69.30;;;;;;4977311;28;20037;-64
2021/03/23 08:43:20;;;;;;;24.60;14.15;;;6.90;69.30;;;;;;4976550;28;20034;-64
2021/03/23 08:45:51;;;;;;;25.85;14.40;;;7.00;69.20;;;;;;4977946;28;20031;-65
2021/03/23 08:48:42;;;;;;;27.15;13.73;;;7.10;69.20;;;;;;4973961;28;20136;-65
2021/03/23 08:51:11;;;;;;;27.20;14.25;;;7.10;69.10;;;;;;4976184;28;20038;-65
2021/03/23 08:53:41;;;;;;;28.55;14.35;;;7.20;69.10;;;;;;4975870;28;20038;-65
2021/03/23 08:56:11;;;;;;;28.35;13.85;;;7.20;69.00;;;;;;4975900;28;20057;-64
2021/03/23 09:01:33;;;;;;;26.98;14.43;;;7.30;68.60;;;;;;4975087;28;20379;-65
2021/03/23 09:04:10;;;;;;;28.75;14.27;;;7.40;68.70;;;;;;4971078;28;20054;-66
2021/03/23 09:06:57;;;;;;;27.35;14.73;;;7.50;68.70;;;;;;4960367;28;20031;-65
2021/03/23 09:09:28;;;;;;;31.67;15.60;;;7.50;68.40;;;;;;4977620;28;20034;-65
2021/03/23 09:12:19;;;;;;;30.15;15.05;;;7.50;68.10;;;;;;4974606;28;20341;-66
2021/03/23 09:15:11;;;;;;;26.98;15.27;;;7.60;68.10;;;;;;4974741;28;20035;-65
2021/03/23 09:18:07;;;;;;;26.63;14.82;;;7.60;67.90;;;;;;4974821;28;20031;-66
2021/03/23 09:20:36;;;;;;;24.15;14.65;;;7.70;67.60;;;;;;4975535;28;20035;-65
2021/03/23 09:23:17;;;;;;;25.92;14.38;;;7.70;67.70;;;;;;4976752;28;20081;-65
2021/03/23 09:25:49;;;;;;;24.77;13.15;;;7.70;67.20;;;;;;4977456;28;20530;-65
2021/03/23 09:28:51;;;;;;;26.42;15.23;;;7.70;67.30;;;;;;4976484;28;20039;-66
2021/03/23 09:31:30;;;;;;;28.73;14.88;;;7.80;66.70;;;;;;4946457;28;20070;-65
2021/03/23 09:33:59;;;;;;;24.23;13.48;;;7.80;66.70;;;;;;4973829;28;20531;-66
2021/03/23 09:36:51;;;;;;;28.05;14.02;;;7.80;66.90;;;;;;4991347;28;20039;-66
2021/03/23 09:39:16;;;;;;;28.70;14.35;;;7.80;67.20;;;;;;4975432;28;20403;-66
2021/03/23 09:41:50;;;;;;;26.38;15.43;;;7.80;67.40;;;;;;4976486;28;20369;-66
2021/03/23 09:44:20;;;;;;;24.45;14.02;;;7.80;67.50;;;;;;4974779;28;20031;-66
2021/03/23 09:46:56;;;;;;;26.25;14.70;;;7.90;67.60;;;;;;4977422;28;20118;-64
2021/03/23 09:49:47;;;;;;;25.05;13.95;;;8.00;67.30;;;;;;4974112;28;20038;-66
2021/03/23 09:52:25;;;;;;;24.30;13.52;;;8.00;66.80;;;;;;4977616;28;20502;-65
2021/03/23 09:54:57;;;;;;;21.60;12.70;;;8.10;66.50;;;;;;4976611;28;20085;-65
2021/03/23 09:57:31;;;;;;;21.58;11.98;;;8.10;66.60;;;;;;4976788;28;20061;-65
2021/03/23 10:00:07;;;;;;;19.80;11.80;;;8.20;66.00;;;;;;4976772;28;20063;-65
2021/03/23 10:02:38;;;;;;;22.02;11.82;;;8.20;65.30;;;;;;4980081;28;20035;-65
2021/03/23 10:05:20;;;;;;;20.80;12.43;;;8.30;65.00;;;;;;4978733;28;20062;-66
2021/03/23 10:07:48;;;;;;;22.25;11.23;;;8.30;65.20;;;;;;4980171;28;20472;-65
2021/03/23 10:10:23;;;;;;;21.52;10.80;;;8.30;65.70;;;;;;4979005;28;20034;-65
2021/03/23 10:12:48;;;;;;;;;;;8.40;65.80;;;;;;4963127;28;20035;-65
2021/03/23 10:15:39;;;;;;;22.13;12.98;;;8.50;65.70;;;;;;4979532;28;19918;-65
2021/03/23 10:18:27;;;;;;;20.77;11.85;;;8.60;64.50;;;;;;4970993;28;20042;-65
2021/03/23 10:21:06;;;;;;;19.60;11.93;;;8.70;63.70;;;;;;4980274;28;20027;-65
2021/03/23 10:23:37;;;;;;;16.95;10.55;;;8.70;64.20;;;;;;4979581;28;20035;-66
2021/03/23 10:26:06;;;;;;;20.15;10.55;;;8.80;64.50;;;;;;4981362;28;20027;-65
2021/03/23 10:28:36;;;;;;;17.02;9.95;;;8.90;64.60;;;;;;4979612;28;20062;-65
2021/03/23 10:31:09;;;;;;;17.00;10.15;;;9.00;64.70;;;;;;4975537;28;20043;-67
2021/03/23 10:33:37;;;;;;;17.55;10.65;;;9.10;64.20;;;;;;4979778;28;20042;-65
2021/03/23 10:36:12;;;;;;;13.65;8.90;;;9.20;64.00;;;;;;4978594;28;20030;-66
2021/03/23 10:38:45;;;;;;;15.02;9.63;;;9.30;63.10;;;;;;4992903;28;20544;-65
2021/03/23 10:41:16;;;;;;;17.25;9.18;;;9.40;62.50;;;;;;4980762;28;20077;-65
2021/03/23 10:43:42;;;;;;;16.10;8.57;;;9.50;62.00;;;;;;4979033;28;20046;-66
2021/03/23 10:46:44;;;;;;;10.63;6.85;;;9.60;62.50;;;;;;4980579;28;20030;-64
2021/03/23 10:49:29;;;;;;;9.55;6.60;;;9.70;60.50;;;;;;4915117;29;20040;-65
2021/03/23 10:52:02;;;;;;;11.43;7.32;;;9.70;61.40;;;;;;4975641;28;20061;-67
2021/03/23 10:54:39;;;;;;;12.32;7.53;;;9.80;60.50;;;;;;4977344;28;20035;-65
2021/03/23 10:57:26;;;;;;;9.95;6.78;;;9.90;59.40;;;;;;4978301;28;20035;-66
2021/03/23 10:59:56;;;;;;;10.40;6.55;;;9.90;58.50;;;;;;4978294;28;20031;-65
2021/03/23 11:02:28;;;;;;;11.45;7.15;;;9.90;59.40;;;;;;4977559;28;20035;-65
2021/03/23 11:05:08;;;;;;;11.90;7.93;;;9.90;59.50;;;;;;4980068;28;20368;-65
2021/03/23 11:07:36;;;;;;;12.13;7.13;;;9.90;59.50;;;;;;4978938;28;20126;-66
2021/03/23 11:10:09;;;;;;;12.07;7.75;;;9.90;59.60;;;;;;4977997;28;20112;-65
2021/03/23 11:12:37;;;;;;;11.93;7.13;;;10.00;59.50;;;;;;4974956;28;20045;-65
2021/03/23 11:15:05;;;;;;;10.02;6.28;;;10.10;59.60;;;;;;4978020;28;20042;-66
2021/03/23 11:17:33;;;;;;;10.55;6.47;;;10.10;59.00;;;;;;4980501;28;20515;-66
2021/03/23 11:20:08;;;;;;;11.30;7.07;;;10.20;59.10;;;;;;4976813;28;20429;-66
2021/03/23 11:22:35;;;;;;;12.13;7.90;;;10.20;58.50;;;;;;4979122;28;20031;-65
2021/03/23 11:25:16;;;;;;;11.40;8.13;;;10.30;58.60;;;;;;4976996;28;20573;-66
2021/03/23 11:27:44;;;;;;;13.60;7.90;;;10.30;58.10;;;;;;4978716;28;20530;-64
2021/03/23 11:30:10;;;;;;;8.65;5.63;;;10.30;57.70;;;;;;4979495;28;20039;-65
2021/03/23 11:32:36;;;;;;;9.32;6.57;;;10.30;57.30;;;;;;4974390;28;20071;-65
2021/03/23 11:35:04;;;;;;;10.18;6.32;;;10.20;56.90;;;;;;4962059;28;20202;-66
2021/03/23 11:37:30;;;;;;;9.85;6.07;;;10.20;57.10;;;;;;4977790;28;20136;-65
2021/03/23 11:39:56;;;;;;;7.35;5.50;;;10.10;57.20;;;;;;4978762;28;20426;-65
2021/03/23 11:42:41;;;;;;;8.75;5.90;;;10.10;56.50;;;;;;4979541;28;20409;-65
2021/03/23 11:45:15;;;;;;;6.95;5.15;;;10.10;54.10;;;;;;4979322;28;20023;-65
2021/03/23 11:47:49;;;;;;;9.50;5.80;;;10.10;55.60;;;;;;4977121;28;20446;-65
2021/03/23 11:50:20;;;;;;;8.47;5.60;;;10.00;56.00;;;;;;4978493;28;20038;-65
2021/03/23 11:52:52;;;;;;;7.15;5.10;;;10.00;56.10;;;;;;4979372;28;20053;-66
2021/03/23 11:55:23;;;;;;;7.72;5.40;;;10.00;55.90;;;;;;4975685;28;20502;-65
2021/03/23 11:57:51;;;;;;;6.28;5.00;;;9.90;55.50;;;;;;4978946;28;20046;-65
2021/03/23 12:00:21;;;;;;;7.10;5.05;;;9.90;55.80;;;;;;4976459;28;20517;-65
2021/03/23 12:02:47;;;;;;;7.10;5.57;;;9.90;55.70;;;;;;4974251;28;20085;-64
2021/03/23 12:05:19;;;;;;;9.60;6.07;;;9.90;55.90;;;;;;4976932;28;20576;-65
2021/03/23 12:08:08;;;;;;;9.00;5.95;;;9.80;56.00;;;;;;4977841;28;20047;-64
2021/03/23 12:10:43;;;;;;;8.73;6.22;;;9.80;56.00;;;;;;4972940;28;20326;-64
2021/03/23 12:14:00;;;;;;;9.50;5.82;;;9.80;55.40;;;;;;4962793;28;20031;-63
2021/03/23 12:16:46;;;;;;;8.57;6.10;;;9.70;55.00;;;;;;4941747;28;20116;-65
2021/03/23 12:19:20;;;;;;;10.98;5.85;;;9.70;55.40;;;;;;4977244;28;20118;-64
2021/03/23 12:21:49;;;;;;;9.20;6.00;;;9.60;55.70;;;;;;4979540;28;20031;-65
2021/03/23 12:24:21;;;;;;;8.90;5.90;;;9.60;56.10;;;;;;4975944;28;20498;-65
2021/03/23 12:26:49;;;;;;;8.15;5.88;;;9.60;55.80;;;;;;4977414;28;20030;-65
2021/03/23 12:29:17;;;;;;;9.52;5.75;;;9.60;56.00;;;;;;4978795;28;20541;-64
2021/03/23 12:31:43;;;;;;;9.68;6.03;;;9.50;56.20;;;;;;4978982;28;20035;-65
2021/03/23 12:34:11;;;;;;;8.20;5.78;;;9.50;56.60;;;;;;4975324;28;20401;-65
2021/03/23 12:36:38;;;;;;;9.25;6.03;;;9.60;56.20;;;;;;4977905;28;20053;-64
2021/03/23 12:39:04;;;;;;;10.63;6.00;;;9.60;56.30;;;;;;4976091;28;20541;-64
2021/03/23 12:41:37;;;;;;;8.23;5.88;;;9.60;55.90;;;;;;4977871;28;20043;-64
2021/03/23 12:44:04;;;;;;;9.00;6.15;;;9.60;55.80;;;;;;4978014;28;20379;-65
2021/03/23 12:46:31;;;;;;;11.30;6.72;;;9.60;55.90;;;;;;4977285;28;20146;-64
2021/03/23 12:48:57;;;;;;;10.25;6.60;;;9.70;56.20;;;;;;4976519;28;20073;-65
2021/03/23 12:51:49;;;;;;;10.00;6.80;;;9.70;56.10;;;;;;4978195;28;20035;-65
2021/03/23 12:54:38;;;;;;;10.98;7.43;;;9.70;55.70;;;;;;4969736;28;20472;-65
2021/03/23 12:57:15;;;;;;;10.52;6.60;;;9.70;55.50;;;;;;4977684;28;20031;-64
2021/03/23 12:59:40;;;;;;;9.65;6.65;;;9.80;56.30;;;;;;4978696;28;20031;-65
2021/03/23 13:02:10;;;;;;;8.68;6.28;;;9.80;56.60;;;;;;4972245;28;20082;-65
2021/03/23 13:04:38;;;;;;;8.57;6.18;;;9.80;56.50;;;;;;4976143;28;20031;-64
2021/03/23 13:07:11;;;;;;;9.77;6.35;;;9.90;56.50;;;;;;4975522;28;20046;-65
2021/03/23 13:09:40;;;;;;;8.05;5.85;;;9.90;56.10;;;;;;4976952;28;20417;-65
2021/03/23 13:12:11;;;;;;;7.45;5.72;;;10.00;56.40;;;;;;4970302;28;20031;-65
2021/03/23 13:14:40;;;;;;;9.25;6.57;;;10.00;56.00;;;;;;4977680;28;20027;-65
2021/03/23 13:17:08;;;;;;;11.75;6.28;;;10.10;55.90;;;;;;4977387;28;20042;-64